Weather at Westosha Airport [CLOSED]

Public forecast

Using degrees Fahrenheit for public forecast. Weather courtesy of forecast.io.

Closest aviation weather report (METAR) to Westosha Airport

Closest report is Burlington Municipal Airport, 11.5 nm (21.3 km) NNW. Retrieved 2021/06/20 10:35 UTC (0 seconds ago):

KBUU 201035Z AUTO 00000KT 7SM 13/13 A2975 RMK AO2 T01310131 PWINO

Closest aviation forecast (TAF) to Westosha Airport

Closest forecast is Kenosha Regional Airport, 13.2 nm (24.5 km) ENE. Retrieved 2021/06/20 06:22 UTC (4 hours ago):

TAF KENW 200520Z 2006/2106 VRB03KT P6SM SCT250 FM201500 15005KT P6SM BKN250 FM201800 14010KT P6SM VCTS BKN120CB TEMPO 2019/2023 4SM -TSRA BR BKN050CB FM202300 10010KT P6SM VCTS OVC050CB FM210300 24008KT 6SM SHRA BR VCTS OVC040CB